createdAt,value
2023-01-11T00:00:28.250Z,0.00
2023-01-11T00:00:29.845Z,0.00
2023-01-11T00:01:29.852Z,0.00
2023-01-11T00:02:30.129Z,0.00
2023-01-11T00:03:29.808Z,0.00
2023-01-11T00:04:30.506Z,0.00
2023-01-11T00:05:29.847Z,0.00
2023-01-11T00:06:30.459Z,0.00
2023-01-11T00:08:53.681Z,0.00
2023-01-11T00:08:55.165Z,0.00
2023-01-11T00:09:55.381Z,0.00
2023-01-11T00:11:00.997Z,0.00
2023-01-11T00:13:22.381Z,0.00
2023-01-11T00:13:24.927Z,0.00
2023-01-11T00:15:50.703Z,0.00
2023-01-11T00:15:52.290Z,0.00
2023-01-11T00:17:04.733Z,0.00
2023-01-11T00:17:59.365Z,0.00
2023-01-11T00:19:03.128Z,0.00
2023-01-11T00:21:28.005Z,0.00
2023-01-11T00:21:31.350Z,0.00
2023-01-11T00:22:30.485Z,0.00
2023-01-11T00:24:54.684Z,0.00
2023-01-11T00:24:56.290Z,0.00
2023-01-11T00:26:10.209Z,0.00
2023-01-11T00:28:22.165Z,0.00
2023-01-11T00:28:23.681Z,0.00
2023-01-11T00:29:26.656Z,0.00
2023-01-11T00:31:50.207Z,0.00
2023-01-11T00:31:51.802Z,0.00
2023-01-11T00:32:51.999Z,0.00
2023-01-11T00:35:01.447Z,0.00
2023-01-11T00:35:15.021Z,0.00
2023-01-11T00:36:04.381Z,0.00
2023-01-11T00:38:47.183Z,0.00
2023-01-11T00:40:20.212Z,0.00
2023-01-11T00:40:57.137Z,0.00
2023-01-11T00:41:30.230Z,0.00
2023-01-11T00:45:55.762Z,0.00
2023-01-11T00:48:28.803Z,0.00
2023-01-11T00:50:54.511Z,0.00
2023-01-11T00:50:56.181Z,0.00
2023-01-11T00:51:56.141Z,0.00
2023-01-11T00:54:46.511Z,0.00
2023-01-11T00:54:50.153Z,0.00
2023-01-11T00:55:49.069Z,0.00
2023-01-11T00:57:42.897Z,0.00
2023-01-11T00:58:28.945Z,0.00
2023-01-11T01:06:10.235Z,0.00
2023-01-11T01:09:11.786Z,0.00
2023-01-11T01:10:56.529Z,0.00
2023-01-11T01:12:24.540Z,0.00
2023-01-11T01:15:55.839Z,0.00
2023-01-11T01:16:57.024Z,0.00
2023-01-11T01:19:43.107Z,0.00
2023-01-11T01:22:08.711Z,0.00
2023-01-11T01:22:15.481Z,0.00
2023-01-11T01:25:56.020Z,0.00
2023-01-11T01:32:51.153Z,0.00
2023-01-11T01:36:45.753Z,0.00
2023-01-11T01:36:47.292Z,0.00
2023-01-11T01:37:47.239Z,0.00
2023-01-11T01:38:47.384Z,0.00
2023-01-11T01:39:48.110Z,0.00
2023-01-11T01:40:49.048Z,0.00
2023-01-11T01:41:49.679Z,0.00
2023-01-11T01:42:49.515Z,0.00
2023-01-11T01:43:48.004Z,0.00
2023-01-11T01:44:48.520Z,0.00
2023-01-11T01:45:47.729Z,0.00
2023-01-11T01:46:47.351Z,0.00
2023-01-11T01:47:48.168Z,0.00
2023-01-11T01:48:48.033Z,0.00
2023-01-11T01:49:47.168Z,0.00
2023-01-11T01:50:47.168Z,0.00
2023-01-11T01:51:47.194Z,0.00
2023-01-11T01:52:47.152Z,0.00
2023-01-11T01:53:48.042Z,0.00
2023-01-11T01:54:47.517Z,0.00
2023-01-11T01:55:47.097Z,0.00
2023-01-11T01:56:47.049Z,0.00
2023-01-11T01:57:47.153Z,0.00
2023-01-11T01:58:47.060Z,0.00
2023-01-11T01:59:47.097Z,0.00
2023-01-11T02:00:47.071Z,0.00
2023-01-11T02:01:47.015Z,0.00
2023-01-11T02:02:47.048Z,0.00
2023-01-11T02:03:47.021Z,0.00
2023-01-11T02:04:47.077Z,0.00
2023-01-11T02:05:47.520Z,0.00
2023-01-11T02:06:47.322Z,0.00
2023-01-11T02:07:47.061Z,0.00
2023-01-11T02:08:47.027Z,0.00
2023-01-11T02:09:47.823Z,0.00
2023-01-11T02:10:46.957Z,0.00
2023-01-11T02:11:46.929Z,0.00
2023-01-11T02:12:46.862Z,0.00
2023-01-11T02:13:46.918Z,0.00
2023-01-11T02:14:46.932Z,0.00
2023-01-11T02:15:46.924Z,0.00
2023-01-11T02:16:46.870Z,0.00
2023-01-11T02:17:47.814Z,0.00
2023-01-11T02:18:46.848Z,0.00
2023-01-11T02:19:46.851Z,0.00
2023-01-11T02:20:46.873Z,0.00
2023-01-11T02:21:48.634Z,0.00
2023-01-11T02:22:47.269Z,0.00
2023-01-11T02:23:46.837Z,0.00
2023-01-11T02:24:46.962Z,0.00
2023-01-11T02:25:46.743Z,0.00
2023-01-11T02:26:46.730Z,0.00
2023-01-11T02:27:46.826Z,0.00
2023-01-11T02:28:46.742Z,0.00
2023-01-11T02:29:46.738Z,0.00
2023-01-11T02:30:46.692Z,0.00
2023-01-11T02:31:46.712Z,0.00
2023-01-11T02:32:46.710Z,0.00
2023-01-11T02:33:46.775Z,0.00
2023-01-11T02:34:46.672Z,0.00
2023-01-11T02:35:46.984Z,0.00
2023-01-11T02:36:46.983Z,0.00
2023-01-11T02:37:46.609Z,0.00
2023-01-11T02:38:46.736Z,0.00
2023-01-11T02:39:46.722Z,0.00
2023-01-11T02:40:46.696Z,0.00
2023-01-11T02:41:47.353Z,0.00
2023-01-11T02:42:46.998Z,0.00
2023-01-11T02:43:47.347Z,0.00
2023-01-11T02:44:47.272Z,0.00
2023-01-11T02:45:47.224Z,0.00
2023-01-11T02:46:46.739Z,0.00
2023-01-11T02:47:48.272Z,0.00
2023-01-11T02:48:46.523Z,0.00
2023-01-11T02:49:47.332Z,0.00
2023-01-11T02:50:46.476Z,0.00
2023-01-11T02:51:46.489Z,0.00
2023-01-11T02:52:46.514Z,0.00
2023-01-11T02:53:47.179Z,0.00
2023-01-11T02:54:47.381Z,0.00
2023-01-11T02:55:46.894Z,0.00
2023-01-11T02:56:47.362Z,0.00
2023-01-11T02:57:46.745Z,0.00
2023-01-11T02:58:47.122Z,0.00
2023-01-11T02:59:47.898Z,0.00
2023-01-11T03:00:47.049Z,0.00
2023-01-11T03:01:46.443Z,0.00
2023-01-11T03:02:46.364Z,0.00
2023-01-11T03:03:46.357Z,0.00
2023-01-11T03:04:47.314Z,0.00
2023-01-11T03:05:46.469Z,0.00
2023-01-11T03:06:46.469Z,0.00
2023-01-11T03:07:46.424Z,0.00
2023-01-11T03:08:46.300Z,0.00
2023-01-11T03:09:46.293Z,0.00
2023-01-11T03:10:47.337Z,0.00
2023-01-11T03:11:46.499Z,0.00
2023-01-11T03:12:46.356Z,0.00
2023-01-11T03:13:47.068Z,0.00
2023-01-11T03:14:47.362Z,0.00
2023-01-11T03:15:47.197Z,0.00
2023-01-11T03:16:46.511Z,0.00
2023-01-11T03:17:46.220Z,0.00
2023-01-11T03:18:46.218Z,0.00
2023-01-11T03:19:46.223Z,0.00
2023-01-11T03:20:47.458Z,0.00
2023-01-11T03:21:47.147Z,0.00
2023-01-11T03:27:01.314Z,0.00
2023-01-11T03:27:03.012Z,0.00
2023-01-11T03:28:03.695Z,0.00
2023-01-11T03:29:02.895Z,0.00
2023-01-11T03:30:02.859Z,0.00
2023-01-11T03:31:02.927Z,0.00
2023-01-11T03:32:02.813Z,0.00
2023-01-11T03:33:02.884Z,0.00
2023-01-11T03:34:02.984Z,0.00
2023-01-11T03:35:03.037Z,0.00
2023-01-11T03:36:02.878Z,0.00
2023-01-11T03:37:02.919Z,0.00
2023-01-11T03:38:02.733Z,0.00
2023-01-11T03:39:02.848Z,0.00
2023-01-11T03:40:02.921Z,0.00
2023-01-11T03:41:02.996Z,0.00
2023-01-11T03:42:03.014Z,0.00
2023-01-11T03:43:02.748Z,0.00
2023-01-11T03:44:02.745Z,0.00
2023-01-11T03:45:02.773Z,0.00
2023-01-11T03:46:02.695Z,0.00
2023-01-11T03:47:02.794Z,0.00
2023-01-11T03:48:02.911Z,0.00
2023-01-11T03:49:02.769Z,0.00
2023-01-11T03:50:02.592Z,0.00
2023-01-11T03:51:02.853Z,0.00
2023-01-11T03:52:03.473Z,0.00
2023-01-11T03:53:02.875Z,0.00
2023-01-11T03:54:02.733Z,0.00
2023-01-11T03:55:02.618Z,0.00
2023-01-11T03:56:02.551Z,0.00
2023-01-11T03:57:02.572Z,0.00
2023-01-11T03:58:36.246Z,0.00
2023-01-11T03:59:02.456Z,0.00
2023-01-11T04:00:02.489Z,0.00
2023-01-11T04:01:02.494Z,0.00
2023-01-11T04:02:02.436Z,0.00
2023-01-11T04:03:03.465Z,0.00
2023-01-11T04:04:02.480Z,0.00
2023-01-11T04:05:02.390Z,0.00
2023-01-11T04:06:02.391Z,0.00
2023-01-11T04:07:02.366Z,0.00
2023-01-11T04:08:02.347Z,0.00
2023-01-11T04:09:02.331Z,0.00
2023-01-11T04:10:02.334Z,0.00
2023-01-11T04:11:02.318Z,0.00
2023-01-11T04:12:02.353Z,0.00
2023-01-11T04:13:02.328Z,0.00
2023-01-11T04:14:02.270Z,0.00
2023-01-11T04:15:02.847Z,0.00
2023-01-11T04:16:02.333Z,0.00
2023-01-11T04:17:02.256Z,0.00
2023-01-11T04:18:02.283Z,0.00
2023-01-11T04:19:02.282Z,0.00
2023-01-11T04:20:02.280Z,0.00
2023-01-11T04:21:02.194Z,0.00
2023-01-11T04:22:02.204Z,0.00
2023-01-11T04:23:02.212Z,0.00
2023-01-11T04:24:02.188Z,0.00
2023-01-11T04:25:02.139Z,0.00
2023-01-11T04:26:02.199Z,0.00
2023-01-11T04:27:02.153Z,0.00
2023-01-11T04:28:02.121Z,0.00
2023-01-11T04:29:02.185Z,0.00
2023-01-11T04:30:02.104Z,0.00
2023-01-11T04:31:02.142Z,0.00
2023-01-11T04:32:02.085Z,0.00
2023-01-11T04:33:02.108Z,0.00
2023-01-11T04:34:02.081Z,0.00
2023-01-11T04:35:02.060Z,0.00
2023-01-11T04:36:02.079Z,0.00
2023-01-11T04:37:02.056Z,0.00
2023-01-11T04:38:02.043Z,0.00
2023-01-11T04:39:02.005Z,0.00
2023-01-11T04:40:02.035Z,0.00
2023-01-11T04:41:01.995Z,0.00
2023-01-11T04:42:02.208Z,0.00
2023-01-11T04:43:01.993Z,0.00
2023-01-11T04:44:01.948Z,0.00
2023-01-11T04:45:01.944Z,0.00
2023-01-11T04:46:02.028Z,0.00
2023-01-11T04:47:01.973Z,0.00
2023-01-11T04:48:01.900Z,0.00
2023-01-11T04:49:01.904Z,0.00
2023-01-11T04:50:01.906Z,0.00
2023-01-11T04:51:02.762Z,0.00
2023-01-11T04:52:01.901Z,0.00
2023-01-11T04:53:01.843Z,0.00
2023-01-11T04:54:01.914Z,0.00
2023-01-11T04:55:01.834Z,0.00
2023-01-11T04:56:01.806Z,0.00
2023-01-11T04:57:01.812Z,0.00
2023-01-11T04:58:01.837Z,0.00
2023-01-11T04:59:01.792Z,0.00
2023-01-11T05:00:01.805Z,0.00
2023-01-11T05:01:01.811Z,0.00
2023-01-11T05:02:01.734Z,0.00
2023-01-11T05:03:01.794Z,0.00
2023-01-11T05:04:01.728Z,0.00
2023-01-11T05:05:01.753Z,0.00
2023-01-11T05:06:01.717Z,0.00
2023-01-11T05:07:01.825Z,0.00
2023-01-11T05:08:01.707Z,0.00
2023-01-11T05:09:01.672Z,0.00
2023-01-11T05:10:01.683Z,0.00
2023-01-11T05:11:01.663Z,0.00
2023-01-11T05:12:01.661Z,0.00
2023-01-11T05:13:01.667Z,0.00
2023-01-11T05:14:01.635Z,0.00
2023-01-11T05:15:01.646Z,0.00
2023-01-11T05:16:01.750Z,0.00
2023-01-11T05:17:01.630Z,0.00
2023-01-11T05:18:01.607Z,0.00
2023-01-11T05:19:01.727Z,0.00
2023-01-11T05:20:01.618Z,0.00
2023-01-11T05:21:01.599Z,0.00
2023-01-11T05:22:01.614Z,0.00
2023-01-11T05:23:01.527Z,0.00
2023-01-11T05:24:01.560Z,0.00
2023-01-11T05:25:01.538Z,0.00
2023-01-11T05:26:01.533Z,0.00
2023-01-11T05:27:01.508Z,0.00
2023-01-11T05:28:01.538Z,0.00
2023-01-11T05:29:01.535Z,0.00
2023-01-11T05:30:01.460Z,0.00
2023-01-11T05:31:01.443Z,0.00
2023-01-11T05:32:01.535Z,0.00
2023-01-11T05:33:01.445Z,0.00
2023-01-11T05:34:01.435Z,0.00
2023-01-11T05:35:01.425Z,0.00
2023-01-11T05:36:01.405Z,0.00
2023-01-11T05:37:01.432Z,0.00
2023-01-11T05:38:01.378Z,0.00
2023-01-11T05:39:01.347Z,0.00
2023-01-11T05:40:01.315Z,0.00
2023-01-11T05:41:01.367Z,0.00
2023-01-11T05:42:01.325Z,0.00
2023-01-11T05:43:01.362Z,0.00
2023-01-11T05:44:01.324Z,0.00
2023-01-11T05:45:01.327Z,0.00
2023-01-11T05:46:01.327Z,0.00
2023-01-11T05:47:01.270Z,0.00
2023-01-11T05:48:01.285Z,0.00
2023-01-11T05:49:01.273Z,0.00
2023-01-11T05:50:01.244Z,0.00
2023-01-11T05:51:01.618Z,0.00
2023-01-11T05:52:02.242Z,0.00
2023-01-11T05:53:01.261Z,0.00
2023-01-11T05:54:01.206Z,0.00
2023-01-11T05:55:01.258Z,0.00
2023-01-11T05:56:01.212Z,0.00
2023-01-11T05:57:01.192Z,0.00
2023-01-11T05:58:01.214Z,0.00
2023-01-11T05:59:01.367Z,0.00
2023-01-11T06:00:01.135Z,0.00
2023-01-11T06:01:01.151Z,0.00
2023-01-11T06:02:01.159Z,0.00
2023-01-11T06:03:01.123Z,0.00
2023-01-11T06:04:01.110Z,0.00
2023-01-11T06:05:01.039Z,0.00
2023-01-11T06:06:01.089Z,0.00
2023-01-11T06:07:01.285Z,0.00
2023-01-11T06:08:01.063Z,0.00
2023-01-11T06:09:01.084Z,0.00
2023-01-11T06:10:01.011Z,0.00
2023-01-11T06:11:01.340Z,0.00
2023-01-11T06:12:01.010Z,0.00
2023-01-11T06:13:01.028Z,0.00
2023-01-11T06:14:00.957Z,0.00
2023-01-11T06:15:01.033Z,0.00
2023-01-11T06:16:00.949Z,0.00
2023-01-11T06:17:00.995Z,0.00
2023-01-11T06:18:00.956Z,0.00
2023-01-11T06:19:00.938Z,0.00
2023-01-11T06:20:00.928Z,0.00
2023-01-11T06:21:01.668Z,0.00
2023-01-11T06:22:00.870Z,0.00
2023-01-11T06:23:01.757Z,0.00
2023-01-11T06:24:00.856Z,0.00
2023-01-11T06:25:00.857Z,0.00
2023-01-11T06:26:00.814Z,0.00
2023-01-11T06:27:00.842Z,0.00
2023-01-11T06:28:00.820Z,0.00
2023-01-11T06:29:00.812Z,0.00
2023-01-11T06:30:00.787Z,0.00
2023-01-11T06:31:00.827Z,0.00
2023-01-11T06:32:00.771Z,0.00
2023-01-11T06:33:00.736Z,0.00
2023-01-11T06:34:00.777Z,0.00
2023-01-11T06:35:00.722Z,0.00
2023-01-11T06:36:00.721Z,0.00
2023-01-11T06:37:00.698Z,0.00
2023-01-11T06:38:00.744Z,0.00
2023-01-11T06:39:00.673Z,0.00
2023-01-11T06:40:00.725Z,0.00
2023-01-11T06:41:00.638Z,0.00
2023-01-11T06:42:00.613Z,0.00
2023-01-11T06:43:00.639Z,0.00
2023-01-11T06:44:00.635Z,0.00
2023-01-11T06:45:00.763Z,0.00
2023-01-11T06:46:00.630Z,0.00
2023-01-11T06:47:00.600Z,0.00
2023-01-11T06:48:00.573Z,0.00
2023-01-11T06:49:00.548Z,0.00
2023-01-11T06:50:00.539Z,0.00
2023-01-11T06:51:00.546Z,0.00
2023-01-11T06:52:00.517Z,0.00
2023-01-11T06:53:00.554Z,0.00
2023-01-11T06:54:00.496Z,0.00
2023-01-11T06:55:00.515Z,0.00
2023-01-11T06:56:00.501Z,0.00
2023-01-11T06:57:00.489Z,0.00
2023-01-11T06:58:00.431Z,0.00
2023-01-11T06:59:00.488Z,0.00
2023-01-11T07:00:00.419Z,0.00
2023-01-11T07:01:00.540Z,0.00
2023-01-11T07:02:00.403Z,0.00
2023-01-11T07:03:00.406Z,0.00
2023-01-11T07:04:01.091Z,0.00
2023-01-11T07:05:00.436Z,4.00
2023-01-11T07:06:00.416Z,4.00
2023-01-11T07:07:00.357Z,4.00
2023-01-11T07:08:00.337Z,4.00
2023-01-11T07:09:00.341Z,4.00
2023-01-11T07:10:00.337Z,4.00
2023-01-11T07:11:00.358Z,4.00
2023-01-11T07:12:00.343Z,8.00
2023-01-11T07:13:00.304Z,8.00
2023-01-11T07:14:00.262Z,8.00
2023-01-11T07:15:00.306Z,8.00
2023-01-11T07:16:00.326Z,8.00
2023-01-11T07:17:00.278Z,8.00
2023-01-11T07:18:00.260Z,12.00
2023-01-11T07:19:00.262Z,12.00
2023-01-11T07:20:00.272Z,12.00
2023-01-11T07:21:00.200Z,16.00
2023-01-11T07:22:00.163Z,16.00
2023-01-11T07:23:00.176Z,20.00
2023-01-11T07:24:00.727Z,16.00
2023-01-11T07:25:00.190Z,16.00
2023-01-11T07:26:00.207Z,20.00
2023-01-11T07:27:00.145Z,20.00
2023-01-11T07:28:00.129Z,20.00
2023-01-11T07:29:00.135Z,24.00
2023-01-11T07:30:00.172Z,28.00
2023-01-11T07:31:00.392Z,32.00
2023-01-11T07:32:01.090Z,32.00
2023-01-11T07:33:00.130Z,36.00
2023-01-11T07:34:00.037Z,36.00
2023-01-11T07:35:00.050Z,40.00
2023-01-11T07:36:00.025Z,36.00
2023-01-11T07:37:00.055Z,40.00
2023-01-11T07:37:59.992Z,48.00
2023-01-11T07:39:00.022Z,44.00
2023-01-11T07:39:59.965Z,48.00
2023-01-11T07:40:59.956Z,48.00
2023-01-11T07:42:00.027Z,60.00
2023-01-11T07:42:59.958Z,56.00
2023-01-11T07:43:59.947Z,68.00
2023-01-11T07:44:59.938Z,68.00
2023-01-11T07:45:59.984Z,72.00
2023-01-11T07:46:59.941Z,80.00
2023-01-11T07:47:59.912Z,84.00
2023-01-11T07:48:59.904Z,88.00
2023-01-11T07:50:00.669Z,96.00
2023-01-11T07:50:59.915Z,100.00
2023-01-11T07:51:59.887Z,96.00
2023-01-11T07:52:59.894Z,100.00
2023-01-11T07:53:59.836Z,104.00
2023-01-11T07:54:59.848Z,104.00
2023-01-11T07:55:59.844Z,116.00
2023-01-11T07:57:00.860Z,116.00
2023-01-11T07:57:59.895Z,132.00
2023-01-11T07:58:59.848Z,152.00
2023-01-11T07:59:59.771Z,164.00
2023-01-11T08:00:59.787Z,168.00
2023-01-11T08:01:59.720Z,188.00
2023-01-11T08:02:59.843Z,200.00
2023-01-11T08:03:59.712Z,196.00
2023-01-11T08:05:01.643Z,228.00
2023-01-11T08:05:59.690Z,200.00
2023-01-11T08:06:59.703Z,188.00
2023-01-11T08:08:00.342Z,216.00
2023-01-11T08:08:59.682Z,216.00
2023-01-11T08:09:59.652Z,196.00
2023-01-11T08:10:59.642Z,220.00
2023-01-11T08:11:59.607Z,228.00
2023-01-11T08:12:59.636Z,236.00
2023-01-11T08:13:59.594Z,232.00
2023-01-11T08:14:59.633Z,252.00
2023-01-11T08:15:59.674Z,244.00
2023-01-11T08:16:59.594Z,296.00
2023-01-11T08:17:59.597Z,280.00
2023-01-11T08:18:59.562Z,276.00
2023-01-11T08:19:59.569Z,336.00
2023-01-11T08:20:59.612Z,344.00
2023-01-11T08:21:59.542Z,328.00
2023-01-11T08:22:59.498Z,300.00
2023-01-11T08:23:59.467Z,312.00
2023-01-11T08:24:59.558Z,340.00
2023-01-11T08:25:59.483Z,340.00
2023-01-11T08:26:59.481Z,328.00
2023-01-11T08:27:59.462Z,336.00
2023-01-11T08:28:59.482Z,320.00
2023-01-11T08:29:59.412Z,320.00
2023-01-11T08:30:59.542Z,300.00
2023-01-11T08:31:59.435Z,304.00
2023-01-11T08:32:59.382Z,320.00
2023-01-11T08:33:59.419Z,400.00
2023-01-11T08:34:59.399Z,340.00
2023-01-11T08:35:59.424Z,424.00
2023-01-11T08:36:59.471Z,388.00
2023-01-11T08:37:59.345Z,400.00
2023-01-11T08:38:59.297Z,400.00
2023-01-11T08:39:59.302Z,360.00
2023-01-11T08:40:59.384Z,332.00
2023-01-11T08:41:59.332Z,320.00
2023-01-11T08:42:59.292Z,352.00
2023-01-11T08:43:59.242Z,428.00
2023-01-11T08:44:59.216Z,416.00
2023-01-11T08:45:59.283Z,460.00
2023-01-11T08:46:59.228Z,496.00
2023-01-11T08:47:59.236Z,556.00
2023-01-11T08:48:59.200Z,572.00
2023-01-11T08:49:59.217Z,584.00
2023-01-11T08:50:59.219Z,604.00
2023-01-11T08:51:59.224Z,632.00
2023-01-11T08:52:59.134Z,580.00
2023-01-11T08:53:59.175Z,680.00
2023-01-11T08:54:59.192Z,608.00
2023-01-11T08:55:59.145Z,636.00
2023-01-11T08:56:59.124Z,732.00
2023-01-11T08:57:59.263Z,612.00
2023-01-11T08:58:59.079Z,648.00
2023-01-11T08:59:59.079Z,648.00
2023-01-11T09:00:59.147Z,644.00
2023-01-11T09:01:59.182Z,744.00
2023-01-11T09:02:59.082Z,676.00
2023-01-11T09:03:59.046Z,740.00
2023-01-11T09:04:59.084Z,804.00
2023-01-11T09:05:59.096Z,804.00
2023-01-11T09:06:59.109Z,704.00
2023-01-11T09:07:59.009Z,788.00
2023-01-11T09:08:58.968Z,776.00
2023-01-11T09:09:59.029Z,764.00
2023-01-11T09:10:58.978Z,816.00
2023-01-11T09:11:58.980Z,820.00
2023-01-11T09:12:58.947Z,764.00
2023-01-11T09:13:58.907Z,764.00
2023-01-11T09:14:58.930Z,780.00
2023-01-11T09:15:59.008Z,768.00
2023-01-11T09:16:58.902Z,764.00
2023-01-11T09:17:58.873Z,680.00
2023-01-11T09:18:59.890Z,620.00
2023-01-11T09:19:58.868Z,684.00
2023-01-11T09:20:58.903Z,636.00
2023-01-11T09:21:59.885Z,612.00
2023-01-11T09:22:58.863Z,628.00
2023-01-11T09:23:58.834Z,696.00
2023-01-11T09:24:58.866Z,608.00
2023-01-11T09:25:58.880Z,664.00
2023-01-11T09:26:58.891Z,624.00
2023-01-11T09:27:58.762Z,588.00
2023-01-11T09:28:58.779Z,624.00
2023-01-11T09:29:58.834Z,576.00
2023-01-11T09:30:58.791Z,616.00
2023-01-11T09:31:58.740Z,568.00
2023-01-11T09:32:58.705Z,592.00
2023-01-11T09:33:59.225Z,608.00
2023-01-11T09:34:58.733Z,496.00
2023-01-11T09:35:58.715Z,540.00
2023-01-11T09:36:58.687Z,568.00
2023-01-11T09:37:58.665Z,596.00
2023-01-11T09:38:58.641Z,540.00
2023-01-11T09:39:58.660Z,488.00
2023-01-11T09:40:58.638Z,492.00
2023-01-11T09:41:58.634Z,480.00
2023-01-11T09:42:58.659Z,480.00
2023-01-11T09:43:58.594Z,464.00
2023-01-11T09:44:58.682Z,480.00
2023-01-11T09:45:58.638Z,600.00
2023-01-11T09:46:58.626Z,480.00
2023-01-11T09:47:58.560Z,576.00
2023-01-11T09:48:58.548Z,548.00
2023-01-11T09:49:58.574Z,620.00
2023-01-11T09:50:58.613Z,708.00
2023-01-11T09:51:59.816Z,716.00
2023-01-11T09:52:59.498Z,848.00
2023-01-11T09:53:58.502Z,764.00
2023-01-11T09:54:58.474Z,740.00
2023-01-11T09:55:58.490Z,784.00
2023-01-11T09:56:58.463Z,808.00
2023-01-11T09:57:58.467Z,800.00
2023-01-11T09:58:58.463Z,812.00
2023-01-11T09:59:58.410Z,792.00
2023-01-11T10:01:01.024Z,792.00
2023-01-11T10:01:59.407Z,736.00
2023-01-11T10:02:58.403Z,692.00
2023-01-11T10:03:58.376Z,656.00
2023-01-11T10:04:58.477Z,736.00
2023-01-11T10:05:58.354Z,724.00
2023-01-11T10:06:58.420Z,656.00
2023-01-11T10:18:28.491Z,572.00
2023-01-11T10:18:28.855Z,600.00
2023-01-11T10:18:29.797Z,556.00
2023-01-11T10:18:30.454Z,532.00
2023-01-11T10:19:31.178Z,532.00
2023-01-11T10:20:00.368Z,612.00
2023-01-11T10:20:58.212Z,528.00
2023-01-11T10:21:58.269Z,624.00
2023-01-11T10:22:58.232Z,620.00
2023-01-11T10:23:58.181Z,756.00
2023-01-11T10:24:58.203Z,756.00
2023-01-11T10:25:58.808Z,680.00
2023-01-11T10:26:58.758Z,764.00
2023-01-11T10:27:58.163Z,812.00
2023-01-11T10:28:58.151Z,892.00
2023-01-11T10:29:58.119Z,996.00
2023-01-11T10:30:58.097Z,1084.00
2023-01-11T10:31:58.143Z,1256.00
2023-01-11T10:32:58.068Z,1484.00
2023-01-11T10:33:58.098Z,1480.00
2023-01-11T10:34:58.074Z,1276.00
2023-01-11T10:35:58.106Z,1056.00
2023-01-11T10:36:58.093Z,1076.00
2023-01-11T10:37:58.061Z,936.00
2023-01-11T10:38:58.054Z,900.00
2023-01-11T10:39:58.039Z,1080.00
2023-01-11T10:40:58.031Z,1096.00
2023-01-11T10:41:58.047Z,968.00
2023-01-11T10:42:58.011Z,892.00
2023-01-11T10:43:57.968Z,840.00
2023-01-11T10:44:57.966Z,840.00
2023-01-11T10:45:58.027Z,940.00
2023-01-11T10:46:57.946Z,820.00
2023-01-11T10:47:57.935Z,816.00
2023-01-11T10:48:57.911Z,1000.00
2023-01-11T10:49:57.916Z,1284.00
2023-01-11T10:50:57.899Z,1320.00
2023-01-11T10:51:57.858Z,1320.00
2023-01-11T10:52:57.831Z,1564.00
2023-01-11T10:53:57.848Z,1772.00
2023-01-11T10:54:57.836Z,1940.00
2023-01-11T10:55:57.896Z,1896.00
2023-01-11T10:57:02.570Z,1924.00
2023-01-11T10:58:00.351Z,1860.00
2023-01-11T10:58:57.845Z,1740.00
2023-01-11T10:59:57.829Z,1740.00
2023-01-11T11:00:57.761Z,1684.00
2023-01-11T11:01:57.824Z,1908.00
2023-01-11T11:02:57.796Z,2332.00
2023-01-11T11:03:57.738Z,2368.00
2023-01-11T11:04:57.774Z,2140.00
2023-01-11T11:05:57.714Z,2020.00
2023-01-11T11:06:57.730Z,1980.00
2023-01-11T11:07:57.763Z,1792.00
2023-01-11T11:08:57.783Z,1736.00
2023-01-11T11:09:57.659Z,1756.00
2023-01-11T11:10:57.636Z,1716.00
2023-01-11T11:11:57.653Z,1480.00
2023-01-11T11:12:57.643Z,1288.00
2023-01-11T11:13:57.632Z,1412.00
2023-01-11T11:14:57.626Z,1548.00
2023-01-11T11:15:57.616Z,1508.00
2023-01-11T11:16:57.600Z,1508.00
2023-01-11T11:17:57.644Z,1468.00
2023-01-11T11:18:57.555Z,1444.00
2023-01-11T11:19:57.595Z,1396.00
2023-01-11T11:21:30.059Z,1356.00
2023-01-11T11:22:00.497Z,1268.00
2023-01-11T11:23:02.491Z,1168.00
2023-01-11T11:23:59.136Z,1076.00
2023-01-11T11:24:57.852Z,1148.00
2023-01-11T11:25:57.595Z,1116.00
2023-01-11T11:26:58.368Z,1112.00
2023-01-11T11:28:02.396Z,1120.00
2023-01-11T11:29:00.333Z,1080.00
2023-01-11T11:30:00.914Z,1012.00
2023-01-11T11:31:00.018Z,992.00
2023-01-11T11:31:58.645Z,1000.00
2023-01-11T11:32:59.764Z,1040.00
2023-01-11T11:33:58.489Z,1048.00
2023-01-11T11:34:58.476Z,1128.00
2023-01-11T11:35:59.124Z,1128.00
2023-01-11T11:36:58.874Z,1212.00
2023-01-11T11:37:58.789Z,1216.00
2023-01-11T11:38:58.495Z,1304.00
2023-01-11T11:39:57.497Z,1312.00
2023-01-11T11:40:57.412Z,1324.00
2023-01-11T11:41:57.332Z,1324.00
2023-01-11T11:42:57.423Z,1320.00
2023-01-11T11:43:57.608Z,1452.00
2023-01-11T11:44:58.708Z,1564.00
2023-01-11T11:45:58.033Z,1656.00
2023-01-11T11:46:58.953Z,1628.00
2023-01-11T11:47:59.272Z,1628.00
2023-01-11T11:49:00.216Z,1664.00
2023-01-11T11:49:58.298Z,1800.00
2023-01-11T11:50:58.271Z,1900.00
2023-01-11T11:51:57.884Z,1928.00
2023-01-11T11:52:58.173Z,1960.00
2023-01-11T11:53:58.150Z,1960.00
2023-01-11T11:54:57.289Z,1984.00
2023-01-11T11:55:57.233Z,1988.00
2023-01-11T11:56:57.194Z,1960.00
2023-01-11T11:58:31.226Z,1896.00
2023-01-11T11:58:57.218Z,1848.00
2023-01-11T11:59:57.237Z,1828.00
2023-01-11T12:00:57.174Z,1764.00
2023-01-11T12:01:57.156Z,1768.00
2023-01-11T12:02:57.747Z,1816.00
2023-01-11T12:03:57.608Z,1860.00
2023-01-11T12:04:57.194Z,1796.00
2023-01-11T12:05:57.094Z,1668.00
2023-01-11T12:06:57.105Z,1600.00
2023-01-11T12:07:57.122Z,1612.00
2023-01-11T12:08:57.064Z,1620.00
2023-01-11T12:09:57.041Z,1620.00
2023-01-11T12:10:57.057Z,1520.00
2023-01-11T12:11:58.170Z,1424.00
2023-01-11T12:12:58.829Z,1400.00
2023-01-11T12:13:57.855Z,1324.00
2023-01-11T12:14:57.681Z,1324.00
2023-01-11T12:15:57.036Z,1304.00
2023-01-11T12:16:56.989Z,1248.00
2023-01-11T12:17:57.690Z,1260.00
2023-01-11T12:18:56.998Z,1312.00
2023-01-11T12:19:56.911Z,1292.00
2023-01-11T12:20:57.062Z,1288.00
2023-01-11T12:21:56.978Z,1244.00
2023-01-11T12:22:56.922Z,1204.00
2023-01-11T12:23:57.785Z,1164.00
2023-01-11T12:24:57.323Z,1176.00
2023-01-11T12:25:56.921Z,1196.00
2023-01-11T12:26:57.035Z,1236.00
2023-01-11T12:27:56.826Z,1284.00
2023-01-11T12:28:56.806Z,1300.00
2023-01-11T12:29:56.796Z,1332.00
2023-01-11T12:30:57.788Z,1364.00
2023-01-11T12:31:56.894Z,1396.00
2023-01-11T12:32:56.803Z,1372.00
2023-01-11T12:33:56.748Z,1360.00
2023-01-11T12:34:57.817Z,1328.00
2023-01-11T12:35:56.758Z,1296.00
2023-01-11T12:36:56.837Z,1276.00
2023-01-11T12:37:56.810Z,1248.00
2023-01-11T12:38:56.745Z,1228.00
2023-01-11T12:39:56.748Z,1216.00
2023-01-11T12:40:56.697Z,1200.00
2023-01-11T12:41:56.676Z,1220.00
2023-01-11T12:42:57.290Z,1224.00
2023-01-11T12:43:57.286Z,1192.00
2023-01-11T12:44:57.335Z,1132.00
2023-01-11T12:45:56.671Z,1104.00
2023-01-11T12:46:56.610Z,1104.00
2023-01-11T12:47:58.146Z,1056.00
2023-01-11T12:48:56.604Z,1020.00
2023-01-11T12:49:56.604Z,956.00
2023-01-11T12:50:56.621Z,944.00
2023-01-11T12:51:56.644Z,988.00
2023-01-11T12:52:56.551Z,1044.00
2023-01-11T12:53:56.584Z,1088.00
2023-01-11T12:54:57.174Z,1088.00
2023-01-11T12:55:56.547Z,1092.00
2023-01-11T12:56:56.518Z,1076.00
2023-01-11T12:57:56.572Z,1056.00
2023-01-11T12:58:57.355Z,1056.00
2023-01-11T12:59:56.490Z,1000.00
2023-01-11T13:00:56.568Z,896.00
2023-01-11T13:01:56.535Z,880.00
2023-01-11T13:02:57.008Z,860.00
2023-01-11T13:03:56.562Z,768.00
2023-01-11T13:04:57.216Z,808.00
2023-01-11T13:05:56.545Z,904.00
2023-01-11T13:06:56.511Z,1004.00
2023-01-11T13:07:56.467Z,1148.00
2023-01-11T13:08:56.407Z,1216.00
2023-01-11T13:09:56.540Z,1216.00
2023-01-11T13:10:59.892Z,1180.00
2023-01-11T13:11:57.120Z,1056.00
2023-01-11T13:12:58.820Z,960.00
2023-01-11T13:13:56.711Z,880.00
2023-01-11T13:14:57.973Z,812.00
2023-01-11T13:15:58.955Z,888.00
2023-01-11T13:16:56.857Z,888.00
2023-01-11T13:17:57.368Z,832.00
2023-01-11T13:18:57.139Z,816.00
2023-01-11T13:19:59.409Z,912.00
2023-01-11T13:21:01.760Z,1144.00
2023-01-11T13:21:58.606Z,1304.00
2023-01-11T13:22:58.588Z,1352.00
2023-01-11T13:23:57.832Z,1296.00
2023-01-11T13:24:59.047Z,1288.00
2023-01-11T13:25:56.676Z,1208.00
2023-01-11T13:26:56.339Z,1012.00
2023-01-11T13:27:57.198Z,804.00
2023-01-11T13:28:57.877Z,696.00
2023-01-11T13:29:58.246Z,700.00
2023-01-11T13:30:59.750Z,676.00
2023-01-11T13:31:59.903Z,756.00
2023-01-11T13:32:56.224Z,884.00
2023-01-11T13:33:56.220Z,888.00
2023-01-11T13:34:57.141Z,840.00
2023-01-11T13:35:59.243Z,904.00